Terminal Aerodrome Forecast
Issued by NWS Sterling, VA

Current Version | Previous Version | Graphics & Text | Print | Product List | Glossary On
Versions: 1 2 3 4 5 6 7 8 9 10 11 12 13 14
231
FTUS41 KLWX 202337
TAFMRB
TAF
KMRB 202337Z 2100/2124 VRB03KT P6SM OVC045
     FM210400 VRB03KT 4SM -SHRA OVC040
     FM210600 00000KT 2SM -SHRA OVC040
     FM210900 00000KT 2SM BR OVC025
     FM211200 VRB03KT 4SM BR OVC025
     FM211500 33006KT P6SM BKN045=

USA.gov is the U.S. government's official web portal to all federal, state and local government web resources and services.